Time;durP1;ratioP1;P1;durP2;ratioP2;P2;SDS_P1;SDS_P2;PMS_P1;PMS_P2;Temp;Humidity;BMP_temperature;BMP_pressure;BME280_temperature;BME280_humidity;BME280_pressure;Samples;Min_cycle;Max_cycle;Signal;HPM_P1;HPM_P2
2023/09/01 00:01:39;;;;;;;4.78;3.00;;;18.90;90.00;;;;;;5074608;28;20123;-78
2023/09/01 00:04:05;;;;;;;4.72;2.92;;;18.90;90.00;;;;;;5075624;28;20036;-79
2023/09/01 00:06:30;;;;;;;4.53;2.80;;;18.90;90.00;;;;;;5074454;28;20439;-79
2023/09/01 00:08:56;;;;;;;4.80;2.90;;;18.90;90.00;;;;;;5075633;28;20481;-77
2023/09/01 00:11:21;;;;;;;5.28;3.17;;;18.80;90.00;;;;;;5075620;28;20032;-78
2023/09/01 00:13:48;;;;;;;4.95;3.03;;;18.80;90.00;;;;;;5075454;28;20028;-79
2023/09/01 00:16:13;;;;;;;5.75;2.95;;;18.80;90.00;;;;;;5075499;28;20049;-79
2023/09/01 00:18:39;;;;;;;4.88;3.00;;;18.90;90.10;;;;;;5075101;28;20020;-79
2023/09/01 00:21:04;;;;;;;4.38;3.00;;;18.90;90.10;;;;;;5074972;28;20156;-78
2023/09/01 00:23:30;;;;;;;5.05;3.00;;;18.90;90.10;;;;;;5075231;28;20020;-79
2023/09/01 00:25:56;;;;;;;5.15;3.20;;;18.90;90.10;;;;;;5075001;28;20055;-79
2023/09/01 00:28:23;;;;;;;5.47;3.00;;;18.90;90.10;;;;;;5075364;28;20056;-78
2023/09/01 00:30:58;;;;;;;4.93;3.10;;;18.90;90.10;;;;;;5073637;28;20511;-78
2023/09/01 00:33:27;;;;;;;4.63;3.03;;;18.90;90.00;;;;;;5074852;28;20021;-79
2023/09/01 00:35:54;;;;;;;5.03;3.35;;;18.90;90.00;;;;;;5073626;28;20032;-78
2023/09/01 00:38:20;;;;;;;5.18;3.13;;;18.90;89.90;;;;;;5073501;28;20028;-79
2023/09/01 00:40:49;;;;;;;5.25;3.45;;;18.90;89.90;;;;;;5074667;28;20051;-78
2023/09/01 00:43:15;;;;;;;5.57;3.45;;;18.90;89.80;;;;;;5073275;28;20025;-78
2023/09/01 00:45:41;;;;;;;5.40;3.60;;;18.90;90.00;;;;;;5074247;28;20056;-79
2023/09/01 00:48:10;;;;;;;5.28;3.38;;;18.80;89.80;;;;;;5073361;28;20103;-78
2023/09/01 00:50:39;;;;;;;4.28;2.88;;;18.90;90.00;;;;;;5074272;28;20025;-78
2023/09/01 00:53:05;;;;;;;5.60;3.30;;;18.90;90.00;;;;;;5074581;28;20024;-78
2023/09/01 00:55:33;;;;;;;4.63;3.17;;;18.90;90.00;;;;;;5074099;28;20016;-79
2023/09/01 00:58:00;;;;;;;5.53;3.33;;;18.90;90.00;;;;;;5074193;28;20032;-79
2023/09/01 01:00:26;;;;;;;5.72;3.63;;;18.90;90.00;;;;;;5073009;28;20401;-78
2023/09/01 01:02:52;;;;;;;6.32;3.60;;;18.80;90.00;;;;;;5074068;28;20020;-78
2023/09/01 01:05:23;;;;;;;5.57;3.40;;;18.90;90.00;;;;;;5075934;28;20033;-79
2023/09/01 01:08:05;;;;;;;5.35;3.70;;;18.80;90.00;;;;;;5080511;28;20025;-80
2023/09/01 01:11:09;;;;;;;5.20;3.28;;;18.80;90.00;;;;;;5080548;28;20020;-79
2023/09/01 01:13:39;;;;;;;5.55;3.55;;;18.80;90.00;;;;;;5063043;28;20037;-79
2023/09/01 01:16:06;;;;;;;5.78;3.72;;;18.90;90.00;;;;;;5078274;28;20032;-79
2023/09/01 01:18:33;;;;;;;5.55;3.50;;;18.80;90.10;;;;;;5078715;28;20031;-80
2023/09/01 01:21:21;;;;;;;5.00;3.30;;;18.80;90.10;;;;;;5079434;28;20517;-79
2023/09/01 01:23:46;;;;;;;5.22;3.35;;;18.80;90.10;;;;;;5078873;28;20108;-79
2023/09/01 01:26:15;;;;;;;6.60;3.80;;;18.80;90.10;;;;;;5078722;28;20064;-79
2023/09/01 01:28:41;;;;;;;5.20;3.30;;;18.90;90.10;;;;;;5078492;28;20492;-79
2023/09/01 01:31:07;;;;;;;4.85;3.25;;;18.90;90.10;;;;;;5078575;28;20024;-79
2023/09/01 01:33:44;;;;;;;4.93;3.05;;;18.90;90.00;;;;;;5077957;28;20017;-79
2023/09/01 01:36:34;;;;;;;5.68;3.67;;;18.90;90.00;;;;;;5079411;28;20028;-79
2023/09/01 01:39:04;;;;;;;5.57;3.50;;;18.90;90.00;;;;;;5079641;28;20099;-79
2023/09/01 01:41:42;;;;;;;5.55;3.63;;;18.90;89.90;;;;;;5077253;28;20850;-79
2023/09/01 01:44:11;;;;;;;5.60;3.70;;;18.80;89.90;;;;;;5077505;28;20028;-80
2023/09/01 01:46:39;;;;;;;5.07;3.17;;;18.90;90.00;;;;;;5078344;28;20024;-79
2023/09/01 01:49:11;;;;;;;5.18;3.50;;;18.80;89.90;;;;;;5076808;28;20021;-79
2023/09/01 01:51:36;;;;;;;;;;;18.80;90.00;;;;;;5078765;28;20060;-79
2023/09/01 01:54:03;;;;;;;5.93;3.78;;;18.80;90.00;;;;;;5077489;28;19911;-79
2023/09/01 01:56:28;;;;;;;6.40;3.75;;;18.90;90.00;;;;;;5076330;28;20059;-79
2023/09/01 01:58:54;;;;;;;5.47;3.63;;;18.80;90.10;;;;;;5077240;28;20035;-79
2023/09/01 02:01:19;;;;;;;5.30;3.38;;;18.80;90.00;;;;;;5077628;28;20111;-79
2023/09/01 02:03:45;;;;;;;5.50;3.30;;;18.80;90.00;;;;;;5075178;28;20024;-79
2023/09/01 02:06:11;;;;;;;6.05;3.78;;;18.80;90.00;;;;;;5075495;28;20107;-79
2023/09/01 02:08:37;;;;;;;5.72;3.72;;;18.80;90.00;;;;;;5075756;28;20092;-79
2023/09/01 02:11:03;;;;;;;5.93;3.60;;;18.80;90.00;;;;;;5075432;28;20016;-79
2023/09/01 02:13:28;;;;;;;5.28;3.33;;;18.80;90.00;;;;;;5074963;28;20021;-79
2023/09/01 02:15:54;;;;;;;5.82;3.70;;;18.80;90.00;;;;;;5074532;28;20028;-79
2023/09/01 02:18:20;;;;;;;5.22;3.60;;;18.80;90.00;;;;;;5076333;28;20103;-79
2023/09/01 02:20:46;;;;;;;5.47;3.65;;;18.80;90.10;;;;;;5076392;28;20081;-79
2023/09/01 02:23:15;;;;;;;6.22;3.65;;;18.80;90.10;;;;;;5075714;28;20025;-79
2023/09/01 02:25:40;;;;;;;5.35;3.22;;;18.80;90.10;;;;;;5075238;28;20020;-79
2023/09/01 02:28:06;;;;;;;5.32;3.40;;;18.80;90.10;;;;;;5074188;28;20078;-77
2023/09/01 02:30:32;;;;;;;6.00;3.50;;;18.90;90.10;;;;;;5076185;28;20056;-79
2023/09/01 02:32:58;;;;;;;6.05;3.95;;;18.90;90.10;;;;;;5074108;28;20048;-79
2023/09/01 02:35:23;;;;;;;5.65;3.47;;;18.90;90.00;;;;;;5073055;28;20036;-79
2023/09/01 02:37:49;;;;;;;5.60;3.70;;;18.90;90.00;;;;;;5073019;28;20025;-79
2023/09/01 02:40:15;;;;;;;5.47;3.55;;;18.90;89.90;;;;;;5073608;28;20048;-79
2023/09/01 02:42:41;;;;;;;5.90;3.83;;;18.90;89.80;;;;;;5073156;28;20025;-78
2023/09/01 02:45:11;;;;;;;5.60;3.58;;;18.80;90.00;;;;;;5072727;28;20040;-79
2023/09/01 02:47:36;;;;;;;5.60;3.70;;;18.80;90.00;;;;;;5072961;28;20020;-79
2023/09/01 02:50:04;;;;;;;5.80;3.50;;;18.80;90.00;;;;;;5074375;28;20097;-79
2023/09/01 02:52:30;;;;;;;5.10;3.55;;;18.80;90.00;;;;;;5074358;28;20476;-78
2023/09/01 02:54:56;;;;;;;6.13;3.58;;;18.80;90.00;;;;;;5067316;28;20025;-79
2023/09/01 02:57:22;;;;;;;5.38;3.63;;;18.80;90.00;;;;;;5072548;28;20036;-78
2023/09/01 02:59:48;;;;;;;5.88;3.60;;;18.80;90.00;;;;;;5073922;28;20039;-79
2023/09/01 03:02:13;;;;;;;5.10;3.53;;;18.80;90.00;;;;;;5074119;28;20111;-79
2023/09/01 03:04:39;;;;;;;5.70;3.70;;;18.80;90.00;;;;;;5072875;28;20085;-79
2023/09/01 03:07:04;;;;;;;5.65;3.50;;;18.80;90.00;;;;;;5072199;28;20028;-79
2023/09/01 03:09:30;;;;;;;5.80;3.30;;;18.80;90.00;;;;;;5072302;28;20021;-78
2023/09/01 03:11:55;;;;;;;5.80;3.70;;;18.80;90.00;;;;;;5073601;28;20028;-78
2023/09/01 03:14:21;;;;;;;5.68;3.50;;;18.80;90.00;;;;;;5073336;28;20481;-79
2023/09/01 03:16:46;;;;;;;6.13;3.72;;;18.80;90.00;;;;;;5072953;28;20074;-79
2023/09/01 03:19:12;;;;;;;6.18;3.60;;;18.80;90.10;;;;;;5071681;28;20097;-79
2023/09/01 03:21:38;;;;;;;5.05;3.42;;;18.80;90.20;;;;;;5073235;28;20033;-79
2023/09/01 03:24:04;;;;;;;5.90;3.55;;;18.80;90.10;;;;;;5071038;28;20043;-78
2023/09/01 03:26:29;;;;;;;4.55;2.97;;;18.80;90.10;;;;;;5074614;28;20021;-79
2023/09/01 03:28:55;;;;;;;5.00;2.95;;;18.80;90.10;;;;;;5075424;28;20029;-78
2023/09/01 03:31:21;;;;;;;4.60;3.17;;;18.80;90.10;;;;;;5076675;28;20070;-78
2023/09/01 03:33:47;;;;;;;5.32;3.22;;;18.80;90.10;;;;;;5076295;28;20020;-79
2023/09/01 03:36:13;;;;;;;5.60;3.78;;;18.80;90.00;;;;;;5076976;28;20028;-78
2023/09/01 03:38:39;;;;;;;5.85;3.70;;;18.90;90.00;;;;;;5074903;28;20036;-78
2023/09/01 03:41:05;;;;;;;5.22;3.67;;;18.90;90.00;;;;;;5076562;28;20027;-78
2023/09/01 03:43:31;;;;;;;5.95;3.75;;;18.80;89.90;;;;;;5076029;28;20029;-78
2023/09/01 03:46:00;;;;;;;5.55;3.53;;;18.80;90.00;;;;;;5076151;28;20020;-79
2023/09/01 03:48:26;;;;;;;5.63;3.55;;;18.80;90.00;;;;;;5074711;28;20033;-78
2023/09/01 03:51:14;;;;;;;5.72;3.92;;;18.80;90.00;;;;;;5075996;28;20021;-79
2023/09/01 03:53:39;;;;;;;6.47;3.75;;;18.80;90.00;;;;;;5075466;28;20024;-78
2023/09/01 03:56:17;;;;;;;5.75;3.75;;;18.80;90.00;;;;;;5075713;28;20024;-78
2023/09/01 03:58:43;;;;;;;5.50;3.60;;;18.80;90.00;;;;;;5075654;28;20546;-78
2023/09/01 04:01:11;;;;;;;5.50;3.40;;;18.80;90.00;;;;;;5075825;28;20029;-79
2023/09/01 04:03:38;;;;;;;5.93;3.78;;;18.70;90.00;;;;;;5075467;28;20024;-79
2023/09/01 04:06:05;;;;;;;6.32;3.95;;;18.70;90.00;;;;;;5074162;28;20055;-78
2023/09/01 04:08:30;;;;;;;5.40;3.50;;;18.80;90.00;;;;;;5075241;28;20028;-78
2023/09/01 04:10:56;;;;;;;5.78;3.50;;;18.70;90.00;;;;;;5074064;28;20025;-79
2023/09/01 04:13:21;;;;;;;5.57;3.60;;;18.70;90.00;;;;;;5075328;28;20393;-79
2023/09/01 04:15:47;;;;;;;6.82;3.90;;;18.70;90.00;;;;;;5075064;28;20083;-77
2023/09/01 04:18:13;;;;;;;5.63;3.78;;;18.70;90.00;;;;;;5075180;28;20024;-79
2023/09/01 04:20:38;;;;;;;5.80;3.75;;;18.70;90.10;;;;;;5074839;28;20108;-78
2023/09/01 04:23:04;;;;;;;6.68;3.72;;;18.70;90.10;;;;;;5073672;28;20447;-79
2023/09/01 04:25:29;;;;;;;5.72;3.35;;;18.80;90.10;;;;;;5074601;28;20024;-79
2023/09/01 04:27:55;;;;;;;5.32;3.30;;;18.70;90.10;;;;;;5074968;28;20020;-79
2023/09/01 04:30:20;;;;;;;5.53;3.25;;;18.80;90.10;;;;;;5075061;28;20016;-78
2023/09/01 04:32:46;;;;;;;5.43;3.50;;;18.80;90.10;;;;;;5074650;28;20099;-78
2023/09/01 04:35:12;;;;;;;5.75;3.53;;;18.80;90.10;;;;;;5074604;28;20029;-78
2023/09/01 04:37:38;;;;;;;6.15;3.63;;;18.80;90.00;;;;;;5073963;28;20089;-79
2023/09/01 04:40:06;;;;;;;5.32;3.58;;;18.80;90.00;;;;;;5079993;28;20367;-79
2023/09/01 04:42:32;;;;;;;5.85;3.45;;;18.80;89.90;;;;;;5080623;28;20170;-79
2023/09/01 04:44:58;;;;;;;5.72;3.60;;;18.80;89.90;;;;;;5080140;28;20602;-79
2023/09/01 04:47:24;;;;;;;6.07;3.63;;;18.80;89.90;;;;;;5081557;28;20048;-79
2023/09/01 04:49:50;;;;;;;6.18;3.35;;;18.80;90.00;;;;;;5079412;28;20028;-79
2023/09/01 04:52:15;;;;;;;5.70;3.75;;;18.70;90.00;;;;;;5080475;28;20016;-80
2023/09/01 04:54:41;;;;;;;6.85;3.47;;;18.80;90.10;;;;;;5077318;28;20051;-81
2023/09/01 04:57:06;;;;;;;6.20;3.60;;;18.70;90.00;;;;;;5068107;28;20459;-82
2023/09/01 04:59:32;;;;;;;6.15;3.58;;;18.70;90.00;;;;;;5078028;28;20046;-83
2023/09/01 05:02:00;;;;;;;6.03;3.50;;;18.70;89.90;;;;;;5084262;28;20110;-84
2023/09/01 05:04:26;;;;;;;5.15;3.42;;;18.80;90.00;;;;;;5101437;28;20377;-83
2023/09/01 05:06:52;;;;;;;5.25;3.30;;;18.70;90.00;;;;;;5078078;28;20024;-82
2023/09/01 05:09:18;;;;;;;5.95;3.50;;;18.70;90.00;;;;;;5069046;28;20086;-82
2023/09/01 05:11:44;;;;;;;5.88;3.80;;;18.70;90.00;;;;;;5077392;28;20012;-81
2023/09/01 05:14:09;;;;;;;6.55;3.67;;;18.70;90.20;;;;;;5081245;28;20051;-80
2023/09/01 05:16:35;;;;;;;5.03;3.42;;;18.70;90.00;;;;;;5082857;28;20027;-81
2023/09/01 05:19:00;;;;;;;6.00;3.97;;;18.70;90.00;;;;;;5078394;28;20028;-81
2023/09/01 05:21:26;;;;;;;4.80;3.25;;;18.70;90.00;;;;;;5077497;28;20023;-81
2023/09/01 05:23:51;;;;;;;5.60;3.65;;;18.70;90.00;;;;;;5078190;28;20028;-82
2023/09/01 05:26:17;;;;;;;5.95;3.53;;;18.70;90.00;;;;;;5076150;28;20028;-82
2023/09/01 05:28:42;;;;;;;5.43;3.63;;;18.70;90.00;;;;;;5073546;28;20653;-82
2023/09/01 05:31:08;;;;;;;4.93;2.95;;;18.80;90.00;;;;;;5071802;28;20028;-80
2023/09/01 05:33:33;;;;;;;5.13;3.35;;;18.80;90.00;;;;;;5073066;28;20036;-79
2023/09/01 05:35:59;;;;;;;6.22;3.35;;;18.80;90.00;;;;;;5070772;28;20033;-80
2023/09/01 05:38:24;;;;;;;5.60;3.50;;;18.80;89.90;;;;;;5072361;28;20025;-80
2023/09/01 05:40:57;;;;;;;5.07;3.38;;;18.80;89.70;;;;;;5072469;28;20838;-80
2023/09/01 05:43:23;;;;;;;5.78;3.50;;;18.80;89.80;;;;;;5072142;28;20028;-79
2023/09/01 05:45:48;;;;;;;5.32;3.17;;;18.80;89.80;;;;;;5071807;28;20504;-80
2023/09/01 05:48:14;;;;;;;6.40;3.85;;;18.70;89.60;;;;;;5071332;28;20071;-80
2023/09/01 05:50:42;;;;;;;6.38;3.60;;;18.80;89.80;;;;;;5069949;28;20029;-82
2023/09/01 05:53:08;;;;;;;6.45;3.85;;;18.80;89.80;;;;;;5072342;28;20112;-81
2023/09/01 05:55:34;;;;;;;5.78;3.42;;;18.80;89.70;;;;;;5072505;28;20048;-81
2023/09/01 05:57:59;;;;;;;5.65;3.67;;;18.80;89.70;;;;;;5069647;28;20111;-79
2023/09/01 06:00:25;;;;;;;5.93;3.40;;;18.80;89.60;;;;;;5070024;28;20055;-79
2023/09/01 06:02:52;;;;;;;6.05;3.63;;;18.80;89.50;;;;;;5070058;28;20083;-80
2023/09/01 06:05:17;;;;;;;5.88;3.58;;;19.20;89.70;;;;;;5069464;28;20025;-81
2023/09/01 06:07:43;;;;;;;6.13;3.70;;;18.80;89.30;;;;;;5052256;28;20370;-80
2023/09/01 06:10:09;;;;;;;5.47;3.30;;;18.80;89.80;;;;;;5058391;28;20027;-82
2023/09/01 06:12:34;;;;;;;5.65;3.17;;;18.80;89.30;;;;;;5071081;28;20077;-80
2023/09/01 06:15:00;;;;;;;6.00;3.63;;;18.80;89.10;;;;;;5065954;28;20493;-79
2023/09/01 06:17:25;;;;;;;6.68;3.55;;;18.80;89.10;;;;;;5066090;28;20056;-79
2023/09/01 06:19:51;;;;;;;4.95;3.33;;;18.80;88.90;;;;;;5062404;28;20416;-80
2023/09/01 06:22:16;;;;;;;5.97;3.22;;;18.90;88.90;;;;;;5070467;28;20032;-80
2023/09/01 06:24:42;;;;;;;5.55;3.28;;;18.90;89.10;;;;;;5070614;28;20029;-80
2023/09/01 06:27:07;;;;;;;7.15;3.40;;;18.90;88.90;;;;;;5068259;28;20033;-81
2023/09/01 06:29:33;;;;;;;6.05;3.35;;;18.90;88.70;;;;;;5071620;28;20044;-78
2023/09/01 06:31:58;;;;;;;5.07;3.40;;;18.90;89.00;;;;;;5068713;28;20024;-80
2023/09/01 06:34:24;;;;;;;5.97;3.28;;;19.00;88.40;;;;;;5068903;28;20120;-79
2023/09/01 06:36:49;;;;;;;6.25;3.50;;;19.00;88.10;;;;;;5070462;28;20028;-80
2023/09/01 06:39:16;;;;;;;5.47;3.33;;;19.00;88.00;;;;;;5070176;28;20036;-78
2023/09/01 06:41:42;;;;;;;5.93;3.55;;;19.00;88.00;;;;;;5069099;28;20035;-80
2023/09/01 06:44:07;;;;;;;6.45;3.60;;;19.00;88.20;;;;;;5063590;28;20028;-79
2023/09/01 06:46:33;;;;;;;6.05;3.60;;;19.00;88.20;;;;;;5065223;28;20450;-80
2023/09/01 06:48:58;;;;;;;7.22;3.50;;;19.00;88.20;;;;;;5061836;28;20016;-80
2023/09/01 06:51:24;;;;;;;6.15;3.70;;;19.00;88.40;;;;;;5057104;28;20078;-79
2023/09/01 06:53:49;;;;;;;6.65;3.88;;;19.00;88.40;;;;;;5063708;28;20024;-80
2023/09/01 06:56:15;;;;;;;6.22;3.17;;;19.00;88.50;;;;;;5066391;28;20040;-80
2023/09/01 06:58:40;;;;;;;5.80;3.15;;;19.00;88.50;;;;;;5066437;28;20137;-80
2023/09/01 07:01:11;;;;;;;6.28;3.70;;;19.00;88.50;;;;;;5064542;28;20103;-80
2023/09/01 07:03:36;;;;;;;5.47;3.00;;;19.00;88.50;;;;;;5062978;28;20021;-81
2023/09/01 07:06:03;;;;;;;7.13;3.35;;;19.00;88.40;;;;;;5070373;28;20037;-80
2023/09/01 07:08:29;;;;;;;6.28;3.28;;;19.00;88.30;;;;;;5071307;28;20029;-80
2023/09/01 07:11:03;;;;;;;6.13;3.35;;;19.00;88.20;;;;;;5070656;28;20024;-80
2023/09/01 07:13:29;;;;;;;5.85;3.25;;;19.00;88.20;;;;;;5068792;28;20033;-79
2023/09/01 07:15:55;;;;;;;6.03;3.45;;;19.00;88.20;;;;;;5067328;28;20547;-79
2023/09/01 07:18:22;;;;;;;6.55;3.10;;;19.00;88.20;;;;;;5067427;28;20064;-78
2023/09/01 07:20:49;;;;;;;5.28;3.30;;;19.00;88.10;;;;;;5067029;28;20516;-81
2023/09/01 07:23:14;;;;;;;6.15;3.38;;;19.10;88.20;;;;;;5069488;28;20081;-78
2023/09/01 07:25:40;;;;;;;5.85;3.28;;;19.10;88.10;;;;;;5068877;28;20033;-79
2023/09/01 07:28:08;;;;;;;5.95;3.40;;;19.10;88.10;;;;;;5069728;28;20032;-79
2023/09/01 07:30:33;;;;;;;5.50;2.97;;;19.10;87.90;;;;;;5067812;28;20024;-79
2023/09/01 07:33:00;;;;;;;5.85;3.05;;;19.10;87.80;;;;;;5069294;28;20052;-80
2023/09/01 07:35:25;;;;;;;6.10;3.45;;;19.20;87.70;;;;;;5067879;28;20032;-79
2023/09/01 07:37:51;;;;;;;5.80;3.20;;;19.20;87.60;;;;;;5067517;28;20020;-79
2023/09/01 07:40:16;;;;;;;5.22;3.13;;;19.20;87.50;;;;;;5068353;28;20404;-80
2023/09/01 07:42:42;;;;;;;6.07;3.20;;;19.20;87.50;;;;;;5068906;28;20493;-79
2023/09/01 07:45:08;;;;;;;4.80;2.80;;;19.20;87.50;;;;;;5069939;28;20432;-79
2023/09/01 07:47:33;;;;;;;5.72;3.08;;;19.20;87.50;;;;;;5067741;28;20024;-79
2023/09/01 07:49:59;;;;;;;5.28;3.10;;;19.20;87.50;;;;;;5069326;28;20366;-79
2023/09/01 07:52:25;;;;;;;5.75;3.08;;;19.20;87.60;;;;;;5067806;28;20023;-79
2023/09/01 07:54:51;;;;;;;6.20;3.33;;;19.20;87.60;;;;;;5069548;28;20031;-79
2023/09/01 07:57:16;;;;;;;6.38;3.53;;;19.20;87.70;;;;;;5067234;28;20028;-78
2023/09/01 07:59:42;;;;;;;5.32;3.00;;;19.20;87.70;;;;;;5068234;28;20052;-79
2023/09/01 08:02:07;;;;;;;6.13;3.33;;;19.20;87.50;;;;;;5069094;28;20876;-78
2023/09/01 08:04:33;;;;;;;5.82;3.03;;;19.20;87.50;;;;;;5067542;28;20039;-79
2023/09/01 08:06:59;;;;;;;5.43;3.08;;;19.30;87.50;;;;;;5067594;28;20492;-79
2023/09/01 08:09:25;;;;;;;4.75;2.90;;;19.30;87.50;;;;;;5067960;28;20515;-79
2023/09/01 08:11:51;;;;;;;6.25;2.95;;;19.30;87.50;;;;;;5070112;28;20685;-80
2023/09/01 08:14:16;;;;;;;5.22;2.90;;;19.30;87.30;;;;;;5075254;28;20024;-79
2023/09/01 08:16:42;;;;;;;4.50;2.67;;;19.30;87.30;;;;;;5075523;28;20036;-79
2023/09/01 08:19:09;;;;;;;6.20;3.20;;;19.40;87.30;;;;;;5073910;28;20031;-79
2023/09/01 08:21:35;;;;;;;6.57;3.10;;;19.30;87.30;;;;;;5075449;28;20036;-78
2023/09/01 08:24:01;;;;;;;6.30;3.17;;;19.40;87.30;;;;;;5075258;28;20032;-80
2023/09/01 08:26:27;;;;;;;5.68;2.92;;;19.30;87.10;;;;;;5073734;28;20033;-79
2023/09/01 08:28:56;;;;;;;5.57;3.25;;;19.40;87.00;;;;;;5073357;28;20135;-80
2023/09/01 08:31:21;;;;;;;4.68;2.88;;;19.50;87.00;;;;;;5073415;28;20761;-79
2023/09/01 08:33:47;;;;;;;5.63;3.70;;;19.50;86.80;;;;;;5073063;28;20021;-79
2023/09/01 08:36:12;;;;;;;5.05;2.97;;;19.50;86.60;;;;;;5075223;28;20039;-79
2023/09/01 08:38:38;;;;;;;5.72;3.22;;;19.60;86.50;;;;;;5075287;28;20048;-80
2023/09/01 08:41:04;;;;;;;5.60;3.20;;;19.70;86.60;;;;;;5075158;28;20460;-80
2023/09/01 08:43:38;;;;;;;6.97;3.60;;;19.60;86.40;;;;;;5074688;28;20504;-80
2023/09/01 08:46:04;;;;;;;5.95;3.42;;;19.60;86.40;;;;;;5075251;28;20056;-79
2023/09/01 08:48:31;;;;;;;6.80;3.45;;;19.60;86.30;;;;;;5074854;28;20027;-79
2023/09/01 08:50:57;;;;;;;5.88;3.17;;;19.60;86.40;;;;;;5073929;28;20029;-79
2023/09/01 08:53:24;;;;;;;6.00;3.17;;;19.60;86.50;;;;;;5075121;28;20028;-79
2023/09/01 08:55:49;;;;;;;6.03;3.30;;;19.60;86.40;;;;;;5072870;28;20024;-79
2023/09/01 08:58:17;;;;;;;5.47;2.97;;;19.60;86.50;;;;;;5074128;28;20143;-79
2023/09/01 09:00:43;;;;;;;6.15;3.28;;;19.60;86.50;;;;;;5073562;28;20170;-79
2023/09/01 09:03:14;;;;;;;6.13;3.55;;;19.60;86.70;;;;;;5073892;28;20068;-79
2023/09/01 09:05:40;;;;;;;6.93;3.20;;;19.50;86.70;;;;;;5073300;28;20030;-79
2023/09/01 09:08:07;;;;;;;6.22;3.30;;;19.60;86.90;;;;;;5071429;28;20401;-79
2023/09/01 09:10:34;;;;;;;5.20;3.00;;;19.50;87.00;;;;;;5072100;28;20489;-79
2023/09/01 09:13:00;;;;;;;4.90;2.95;;;19.50;87.10;;;;;;5073311;28;20075;-82
2023/09/01 09:15:26;;;;;;;4.97;3.00;;;19.40;87.10;;;;;;5073818;28;20052;-79
2023/09/01 09:17:51;;;;;;;5.45;3.08;;;19.50;87.20;;;;;;5057106;28;20029;-80
2023/09/01 09:20:18;;;;;;;5.65;3.10;;;19.40;87.30;;;;;;5052456;28;20035;-79
2023/09/01 09:22:51;;;;;;;6.22;2.90;;;19.40;87.40;;;;;;5060826;28;20012;-79
2023/09/01 09:25:31;;;;;;;6.15;3.10;;;19.40;87.90;;;;;;5058532;28;20048;-79
2023/09/01 09:28:01;;;;;;;5.65;3.13;;;19.40;87.40;;;;;;5070726;28;20426;-79
2023/09/01 09:30:27;;;;;;;6.13;3.20;;;19.50;87.30;;;;;;5070785;28;20028;-79
2023/09/01 09:33:01;;;;;;;5.25;3.10;;;19.40;87.20;;;;;;5070016;28;20137;-78
2023/09/01 09:35:27;;;;;;;6.80;3.20;;;19.50;87.10;;;;;;5068957;28;20036;-78
2023/09/01 09:38:00;;;;;;;5.18;2.85;;;19.50;87.10;;;;;;5070166;28;20029;-78
2023/09/01 09:40:27;;;;;;;5.03;2.83;;;19.50;87.10;;;;;;5058366;28;20021;-78
2023/09/01 09:42:55;;;;;;;5.18;3.00;;;19.50;87.10;;;;;;5051403;28;20025;-79
2023/09/01 09:45:26;;;;;;;7.22;3.15;;;19.40;87.10;;;;;;5070576;28;20028;-78
2023/09/01 09:47:54;;;;;;;5.57;2.78;;;19.40;87.30;;;;;;5067950;28;20032;-79
2023/09/01 09:50:20;;;;;;;6.18;3.17;;;19.40;87.40;;;;;;5070551;28;20104;-77
2023/09/01 09:52:49;;;;;;;5.90;3.10;;;19.40;87.50;;;;;;5067444;28;20028;-77
2023/09/01 09:55:40;;;;;;;5.00;2.85;;;19.40;87.60;;;;;;5066619;28;20090;-78
2023/09/01 09:58:07;;;;;;;5.53;2.80;;;19.30;87.70;;;;;;5055503;28;20044;-76
2023/09/01 10:01:02;;;;;;;5.32;3.00;;;19.30;87.70;;;;;;5068312;28;20021;-76
2023/09/01 10:03:31;;;;;;;9.77;3.40;;;19.30;87.90;;;;;;5067786;28;20063;-77
2023/09/01 10:05:58;;;;;;;17.35;4.35;;;19.30;87.40;;;;;;5067223;28;20085;-76
2023/09/01 10:08:24;;;;;;;13.65;4.25;;;19.20;85.50;;;;;;5066941;28;20032;-75
2023/09/01 10:10:50;;;;;;;13.50;4.28;;;19.10;84.40;;;;;;5066858;28;20028;-76
2023/09/01 10:13:16;;;;;;;13.20;4.15;;;19.10;84.40;;;;;;5065504;28;20440;-75
2023/09/01 10:15:42;;;;;;;11.43;3.50;;;19.00;84.50;;;;;;5065581;28;20112;-76
2023/09/01 10:18:09;;;;;;;10.43;3.80;;;19.00;84.50;;;;;;5068316;28;20081;-78
2023/09/01 10:20:42;;;;;;;12.70;3.92;;;19.00;84.40;;;;;;5068870;28;20028;-76
2023/09/01 10:23:09;;;;;;;23.40;4.50;;;19.00;84.50;;;;;;5065966;28;20039;-77
2023/09/01 10:25:35;;;;;;;12.95;4.65;;;19.00;84.40;;;;;;5055212;28;20035;-77
2023/09/01 10:28:04;;;;;;;12.05;5.07;;;19.00;83.90;;;;;;5048239;28;20029;-76
2023/09/01 10:30:37;;;;;;;12.10;3.95;;;19.00;83.50;;;;;;5053183;28;20020;-77
2023/09/01 10:33:07;;;;;;;13.50;4.28;;;19.00;83.70;;;;;;5065061;28;20409;-76
2023/09/01 10:35:40;;;;;;;17.27;4.13;;;19.00;83.90;;;;;;5064299;28;20028;-76
2023/09/01 10:38:11;;;;;;;12.10;4.30;;;18.90;84.00;;;;;;5066726;28;20393;-77
2023/09/01 10:40:40;;;;;;;11.13;3.67;;;18.90;84.30;;;;;;5065013;28;20166;-78
2023/09/01 10:43:06;;;;;;;11.63;4.22;;;18.90;84.40;;;;;;5056651;28;20029;-77
2023/09/01 10:45:32;;;;;;;11.30;3.75;;;19.00;84.50;;;;;;5050622;28;20043;-78
2023/09/01 10:47:58;;;;;;;9.98;3.80;;;18.90;84.60;;;;;;5066357;28;20047;-78
2023/09/01 10:50:23;;;;;;;11.75;3.90;;;18.80;84.70;;;;;;5068071;28;20028;-78
2023/09/01 10:53:29;;;;;;;12.32;4.00;;;18.80;85.00;;;;;;5066561;28;20032;-77
2023/09/01 10:56:11;;;;;;;8.15;3.58;;;18.80;85.10;;;;;;5047667;28;20045;-77
2023/09/01 10:58:45;;;;;;;9.65;3.63;;;18.80;85.20;;;;;;5047139;28;20040;-76
2023/09/01 11:01:24;;;;;;;11.20;3.85;;;18.80;85.10;;;;;;5046372;28;20021;-77
2023/09/01 11:03:50;;;;;;;8.00;3.33;;;18.80;85.20;;;;;;5045711;28;20021;-76
2023/09/01 11:06:16;;;;;;;10.73;3.65;;;18.80;85.30;;;;;;5046439;28;20035;-77
2023/09/01 11:08:55;;;;;;;9.88;3.72;;;18.80;85.20;;;;;;5046901;28;20021;-76
2023/09/01 11:11:21;;;;;;;9.05;3.58;;;18.70;85.20;;;;;;5045539;28;20029;-76
2023/09/01 11:13:58;;;;;;;10.13;3.50;;;18.70;85.20;;;;;;5045027;28;20021;-77
2023/09/01 11:16:24;;;;;;;18.75;4.50;;;18.70;85.30;;;;;;5047149;28;20039;-78
2023/09/01 11:19:02;;;;;;;8.20;3.55;;;18.70;85.30;;;;;;5048894;28;20032;-77
2023/09/01 11:21:29;;;;;;;8.18;3.70;;;18.70;85.20;;;;;;5066106;28;20025;-77
2023/09/01 11:24:03;;;;;;;9.60;3.40;;;18.70;85.20;;;;;;5065590;28;20032;-76
2023/09/01 11:26:29;;;;;;;7.28;3.22;;;18.80;85.30;;;;;;5067071;28;20055;-78
2023/09/01 11:28:55;;;;;;;7.88;3.20;;;18.70;85.10;;;;;;5065864;28;20060;-77
2023/09/01 11:31:21;;;;;;;10.27;3.47;;;18.70;85.10;;;;;;5067591;28;20020;-78
2023/09/01 11:33:51;;;;;;;10.13;3.67;;;18.80;85.00;;;;;;5066800;28;20017;-77
2023/09/01 11:36:17;;;;;;;11.00;3.83;;;18.80;85.10;;;;;;5067645;28;20063;-76
2023/09/01 11:38:43;;;;;;;13.13;3.58;;;18.80;85.20;;;;;;5068257;28;20052;-79
2023/09/01 11:41:13;;;;;;;8.48;3.50;;;18.80;85.20;;;;;;5067500;28;20029;-78
2023/09/01 11:43:40;;;;;;;9.25;3.72;;;18.70;85.10;;;;;;5067403;28;20036;-78
2023/09/01 11:46:07;;;;;;;8.40;3.25;;;18.80;85.30;;;;;;5068353;28;20115;-78
2023/09/01 11:48:32;;;;;;;8.63;3.25;;;18.70;85.30;;;;;;5071069;28;20031;-78
2023/09/01 11:50:58;;;;;;;7.03;3.40;;;18.70;85.40;;;;;;5073118;28;20055;-77
2023/09/01 11:53:29;;;;;;;9.27;3.33;;;18.70;85.60;;;;;;5074846;28;20056;-77
2023/09/01 11:55:58;;;;;;;8.35;3.08;;;18.70;85.50;;;;;;5073936;28;20036;-77
2023/09/01 11:58:25;;;;;;;9.52;4.68;;;18.70;85.60;;;;;;5069791;28;20035;-77
2023/09/01 12:00:51;;;;;;;8.15;4.10;;;18.70;85.80;;;;;;5069807;28;20020;-77
2023/09/01 12:03:21;;;;;;;10.80;3.72;;;18.70;85.90;;;;;;5069492;28;20029;-77
2023/09/01 12:05:47;;;;;;;8.52;3.30;;;18.70;85.90;;;;;;5068343;28;20024;-77
2023/09/01 12:08:12;;;;;;;7.75;3.33;;;18.70;85.90;;;;;;5069544;28;20032;-77
2023/09/01 12:10:38;;;;;;;7.85;3.33;;;18.70;85.90;;;;;;5068477;28;20021;-77
2023/09/01 12:13:11;;;;;;;7.90;3.65;;;18.70;85.90;;;;;;5068994;28;20032;-75
2023/09/01 12:16:00;;;;;;;9.15;3.60;;;18.70;85.90;;;;;;5067158;28;20382;-77
2023/09/01 12:18:38;;;;;;;8.95;3.58;;;18.70;86.00;;;;;;5067374;28;20089;-75
2023/09/01 12:21:06;;;;;;;8.20;3.80;;;18.70;86.10;;;;;;5068374;28;20032;-75
2023/09/01 12:23:41;;;;;;;9.20;3.33;;;18.70;86.20;;;;;;5067303;28;20115;-77
2023/09/01 12:26:07;;;;;;;11.90;3.85;;;18.70;86.30;;;;;;5067352;28;20028;-78
2023/09/01 12:28:34;;;;;;;8.52;3.67;;;18.70;86.40;;;;;;5067335;28;20020;-76
2023/09/01 12:31:01;;;;;;;8.20;3.50;;;18.70;86.40;;;;;;5068268;28;20473;-76
2023/09/01 12:33:27;;;;;;;8.25;3.67;;;18.70;86.50;;;;;;5071961;28;20031;-82
2023/09/01 12:35:53;;;;;;;8.45;3.60;;;18.70;86.60;;;;;;5067375;28;20028;-78
2023/09/01 12:38:19;;;;;;;8.80;4.05;;;18.70;86.70;;;;;;5067770;28;20056;-76
2023/09/01 12:40:45;;;;;;;10.75;4.25;;;18.70;86.80;;;;;;5067411;28;20067;-77
2023/09/01 12:43:11;;;;;;;10.55;3.70;;;18.70;86.90;;;;;;5068723;28;20984;-76
2023/09/01 12:45:37;;;;;;;8.43;4.07;;;18.70;87.00;;;;;;5066853;28;20031;-77
2023/09/01 12:48:03;;;;;;;10.70;3.80;;;18.60;87.00;;;;;;5067434;28;20496;-77